createdAt,value
2023-05-09T00:01:47.754Z,7.29
2023-05-09T00:03:43.245Z,7.30
2023-05-09T00:05:36.059Z,7.30
2023-05-09T00:07:29.146Z,7.31
2023-05-09T00:09:21.982Z,7.30
2023-05-09T00:11:14.925Z,7.31
2023-05-09T00:13:08.176Z,7.30
2023-05-09T00:15:01.228Z,7.29
2023-05-09T00:16:54.118Z,7.28
2023-05-09T00:18:47.326Z,7.28
2023-05-09T00:20:41.096Z,7.27
2023-05-09T00:22:33.942Z,7.25
2023-05-09T00:24:27.507Z,7.22
2023-05-09T00:26:21.889Z,7.20
2023-05-09T00:28:14.938Z,7.19
2023-05-09T00:30:08.609Z,7.17
2023-05-09T00:32:01.477Z,7.14
2023-05-09T00:33:54.397Z,7.11
2023-05-09T00:35:47.551Z,7.09
2023-05-09T00:37:40.607Z,7.08
2023-05-09T00:39:33.445Z,7.06
2023-05-09T00:41:26.474Z,7.03
2023-05-09T00:43:19.342Z,7.00
2023-05-09T00:45:12.425Z,6.98
2023-05-09T00:47:06.773Z,6.96
2023-05-09T00:48:59.725Z,6.94
2023-05-09T00:50:53.306Z,6.94
2023-05-09T00:52:46.651Z,6.93
2023-05-09T00:54:39.796Z,6.91
2023-05-09T00:56:32.846Z,6.91
2023-05-09T00:58:25.897Z,6.90
2023-05-09T01:00:18.859Z,6.88
2023-05-09T01:02:11.916Z,6.86
2023-05-09T01:04:05.663Z,6.84
2023-05-09T01:06:11.128Z,6.83
2023-05-09T01:08:13.265Z,6.81
2023-05-09T01:10:32.203Z,6.79
2023-05-09T01:12:37.462Z,6.76
2023-05-09T01:14:55.614Z,6.74
2023-05-09T01:17:02.777Z,6.73
2023-05-09T01:19:08.000Z,6.71
2023-05-09T01:21:07.705Z,6.69
2023-05-09T01:23:34.578Z,6.65
2023-05-09T01:25:41.856Z,6.60
2023-05-09T01:27:53.772Z,6.56
2023-05-09T01:29:57.249Z,6.52
2023-05-09T01:31:51.933Z,6.49
2023-05-09T01:33:48.496Z,6.47
2023-05-09T01:35:46.120Z,6.45
2023-05-09T01:37:42.085Z,6.44
2023-05-09T01:39:38.644Z,6.41
2023-05-09T01:41:36.375Z,6.38
2023-05-09T01:43:31.060Z,6.35
2023-05-09T01:45:26.416Z,6.31
2023-05-09T01:47:20.302Z,6.28
2023-05-09T01:49:13.962Z,6.25
2023-05-09T01:51:09.440Z,6.24
2023-05-09T01:53:03.343Z,6.23
2023-05-09T01:54:57.516Z,6.24
2023-05-09T01:56:51.504Z,6.25
2023-05-09T01:58:48.433Z,6.25
2023-05-09T02:00:42.257Z,6.25
2023-05-09T02:02:36.444Z,6.23
2023-05-09T02:04:30.973Z,6.20
2023-05-09T02:06:24.933Z,6.15
2023-05-09T02:08:21.336Z,6.11
2023-05-09T02:10:16.055Z,6.07
2023-05-09T02:12:09.014Z,6.03
2023-05-09T02:14:01.954Z,6.01
2023-05-09T02:15:56.736Z,6.00
2023-05-09T02:17:50.040Z,6.00
2023-05-09T02:19:44.020Z,6.00
2023-05-09T02:21:37.023Z,5.99
2023-05-09T02:23:30.815Z,5.98
2023-05-09T02:25:23.934Z,5.97
2023-05-09T02:27:18.120Z,5.95
2023-05-09T02:29:11.982Z,5.94
2023-05-09T02:31:09.234Z,5.91
2023-05-09T02:33:05.112Z,5.88
2023-05-09T02:35:01.170Z,5.84
2023-05-09T02:36:54.222Z,5.81
2023-05-09T02:38:47.378Z,5.77
2023-05-09T02:40:43.572Z,5.74
2023-05-09T02:42:36.771Z,5.67
2023-05-09T02:44:29.606Z,5.59
2023-05-09T02:46:22.498Z,5.52
2023-05-09T02:48:15.393Z,5.48
2023-05-09T02:50:08.756Z,5.46
2023-05-09T02:52:01.952Z,5.47
2023-05-09T02:53:54.957Z,5.47
2023-05-09T02:55:47.807Z,5.49
2023-05-09T02:57:40.746Z,5.50
2023-05-09T02:59:33.899Z,5.49
2023-05-09T03:01:28.126Z,5.50
2023-05-09T03:03:22.388Z,5.50
2023-05-09T03:05:16.197Z,5.51
2023-05-09T03:07:09.377Z,5.50
2023-05-09T03:09:02.737Z,5.50
2023-05-09T03:10:56.198Z,5.48
2023-05-09T03:12:49.532Z,5.47
2023-05-09T03:14:42.517Z,5.46
2023-05-09T03:16:35.975Z,5.45
2023-05-09T03:18:29.319Z,5.44
2023-05-09T03:20:22.272Z,5.43
2023-05-09T03:22:16.140Z,5.41
2023-05-09T03:24:23.320Z,5.41
2023-05-09T03:26:16.378Z,5.39
2023-05-09T03:28:09.523Z,5.40
2023-05-09T03:30:02.573Z,5.41
2023-05-09T03:31:55.497Z,5.42
2023-05-09T03:33:48.571Z,5.43
2023-05-09T03:35:41.624Z,5.43
2023-05-09T03:37:34.983Z,5.43
2023-05-09T03:39:28.030Z,5.45
2023-05-09T03:41:22.835Z,5.46
2023-05-09T03:43:16.284Z,5.46
2023-05-09T03:45:09.791Z,5.47
2023-05-09T03:47:02.968Z,5.49
2023-05-09T03:49:01.887Z,5.49
2023-05-09T03:50:55.038Z,5.51
2023-05-09T03:52:48.501Z,5.55
2023-05-09T03:54:42.470Z,5.57
2023-05-09T03:56:35.420Z,5.59
2023-05-09T03:58:28.378Z,5.62
2023-05-09T04:00:22.770Z,5.64
2023-05-09T04:02:19.469Z,5.66
2023-05-09T04:04:13.516Z,5.69
2023-05-09T04:06:07.041Z,5.73
2023-05-09T04:08:04.278Z,5.78
2023-05-09T04:09:57.525Z,5.81
2023-05-09T04:11:50.483Z,5.86
2023-05-09T04:13:43.338Z,5.91
2023-05-09T04:15:48.119Z,5.97
2023-05-09T04:17:41.115Z,6.01
2023-05-09T04:19:33.957Z,6.07
2023-05-09T04:21:27.007Z,6.13
2023-05-09T04:23:22.107Z,6.17
2023-05-09T04:25:16.137Z,6.23
2023-05-09T04:27:09.318Z,6.27
2023-05-09T04:29:02.488Z,6.29
2023-05-09T04:30:55.519Z,6.34
2023-05-09T04:32:49.128Z,6.39
2023-05-09T04:34:42.430Z,6.43
2023-05-09T04:36:40.106Z,6.48
2023-05-09T04:38:33.360Z,6.55
2023-05-09T04:40:27.048Z,6.61
2023-05-09T04:42:24.170Z,6.69
2023-05-09T04:44:17.330Z,6.76
2023-05-09T04:46:11.224Z,6.82
2023-05-09T04:48:04.689Z,6.90
2023-05-09T04:49:57.725Z,6.98
2023-05-09T04:51:53.213Z,7.07
2023-05-09T04:53:46.058Z,7.17
2023-05-09T04:55:39.060Z,7.25
2023-05-09T04:57:32.055Z,7.32
2023-05-09T04:59:25.211Z,7.40
2023-05-09T05:01:19.108Z,7.46
2023-05-09T05:03:13.060Z,7.53
2023-05-09T05:05:12.060Z,7.61
2023-05-09T05:07:07.506Z,7.70
2023-05-09T05:09:01.728Z,7.79
2023-05-09T05:10:54.569Z,7.89
2023-05-09T05:12:47.463Z,8.00
2023-05-09T05:14:40.451Z,8.07
2023-05-09T05:16:34.407Z,8.16
2023-05-09T05:18:27.596Z,8.25
2023-05-09T05:20:21.329Z,8.34
2023-05-09T05:22:15.026Z,8.43
2023-05-09T05:24:08.484Z,8.50
2023-05-09T05:26:01.666Z,8.57
2023-05-09T05:27:57.149Z,8.63
2023-05-09T05:29:49.992Z,8.71
2023-05-09T05:31:42.883Z,8.80
2023-05-09T05:33:35.790Z,8.91
2023-05-09T05:35:29.508Z,9.02
2023-05-09T05:37:23.504Z,9.12
2023-05-09T05:39:16.386Z,9.24
2023-05-09T05:41:11.574Z,9.51
2023-05-09T05:43:05.049Z,9.75
2023-05-09T05:45:04.585Z,9.98
2023-05-09T05:46:58.197Z,10.20
2023-05-09T05:48:52.395Z,10.39
2023-05-09T05:50:46.036Z,10.58
2023-05-09T05:52:41.765Z,10.75
2023-05-09T05:54:36.525Z,10.90
2023-05-09T05:56:29.383Z,11.10
2023-05-09T05:58:22.557Z,11.25
2023-05-09T06:00:16.515Z,11.42
2023-05-09T06:02:16.266Z,11.55
2023-05-09T06:04:09.320Z,11.66
2023-05-09T06:06:02.418Z,11.77
2023-05-09T06:07:55.365Z,11.89
2023-05-09T06:09:48.225Z,11.98
2023-05-09T06:11:41.147Z,12.08
2023-05-09T06:13:34.732Z,12.17
2023-05-09T06:15:30.129Z,12.26
2023-05-09T06:17:23.288Z,12.35
2023-05-09T06:19:16.355Z,12.45
2023-05-09T06:21:09.691Z,12.61
2023-05-09T06:23:02.758Z,12.76
2023-05-09T06:24:56.012Z,12.92
2023-05-09T06:27:01.300Z,12.99
2023-05-09T06:28:54.623Z,13.08
2023-05-09T06:30:47.728Z,13.17
2023-05-09T06:32:40.719Z,13.27
2023-05-09T06:34:33.641Z,13.40
2023-05-09T06:36:26.591Z,13.52
2023-05-09T06:38:19.437Z,13.62
2023-05-09T06:40:12.388Z,13.79
2023-05-09T06:42:05.438Z,13.97
2023-05-09T06:43:59.115Z,14.11
2023-05-09T06:45:52.494Z,14.20
2023-05-09T06:47:46.029Z,14.25
2023-05-09T06:49:46.844Z,14.30
2023-05-09T06:51:39.905Z,14.36
2023-05-09T06:53:32.751Z,14.38
2023-05-09T06:55:25.596Z,14.40
2023-05-09T06:57:18.528Z,14.46
2023-05-09T06:59:13.543Z,14.55
2023-05-09T07:01:07.826Z,14.65
2023-05-09T07:03:01.202Z,14.76
2023-05-09T07:04:55.854Z,14.84
2023-05-09T07:06:56.429Z,15.00
2023-05-09T07:08:49.560Z,15.15
2023-05-09T07:10:42.720Z,15.21
2023-05-09T07:12:35.966Z,15.33
2023-05-09T07:14:30.153Z,15.42
2023-05-09T07:16:23.542Z,15.48
2023-05-09T07:18:16.794Z,15.64
2023-05-09T07:20:13.621Z,15.81
2023-05-09T07:22:06.905Z,15.90
2023-05-09T07:24:00.314Z,15.94
2023-05-09T07:25:59.745Z,16.00
2023-05-09T07:27:53.212Z,16.10
2023-05-09T07:29:46.653Z,16.06
2023-05-09T07:31:39.874Z,15.96
2023-05-09T07:33:33.953Z,15.99
2023-05-09T07:35:27.810Z,16.04
2023-05-09T07:37:21.908Z,16.14
2023-05-09T07:39:15.084Z,16.24
2023-05-09T07:41:08.213Z,16.23
2023-05-09T07:43:01.383Z,16.29
2023-05-09T07:44:54.830Z,16.35
2023-05-09T07:46:48.184Z,16.41
2023-05-09T07:48:41.360Z,16.45
2023-05-09T07:50:34.621Z,16.50
2023-05-09T07:52:31.589Z,16.58
2023-05-09T07:54:25.198Z,16.65
2023-05-09T07:56:18.439Z,16.70
2023-05-09T07:58:15.411Z,16.69
2023-05-09T08:00:10.725Z,16.65
2023-05-09T08:02:06.709Z,16.63
2023-05-09T08:04:03.344Z,16.57
2023-05-09T08:05:58.446Z,16.57
2023-05-09T08:07:52.909Z,16.65
2023-05-09T08:09:45.869Z,16.78
2023-05-09T08:11:38.923Z,16.89
2023-05-09T08:13:31.888Z,16.92
2023-05-09T08:15:25.132Z,16.97
2023-05-09T08:17:23.261Z,17.01
2023-05-09T08:19:16.788Z,17.06
2023-05-09T08:21:10.538Z,17.10
2023-05-09T08:23:04.402Z,17.04
2023-05-09T08:24:57.920Z,17.02
2023-05-09T08:26:51.407Z,17.07
2023-05-09T08:28:44.862Z,17.17
2023-05-09T08:30:52.470Z,17.26
2023-05-09T08:32:45.778Z,17.29
2023-05-09T08:34:38.925Z,17.31
2023-05-09T08:36:32.770Z,17.33
2023-05-09T08:38:31.777Z,17.29
2023-05-09T08:40:24.850Z,17.30
2023-05-09T08:42:24.678Z,17.28
2023-05-09T08:44:21.736Z,17.25
2023-05-09T08:46:16.569Z,17.24
2023-05-09T08:48:10.164Z,17.23
2023-05-09T08:50:04.476Z,17.24
2023-05-09T08:51:57.861Z,17.25
2023-05-09T08:53:52.044Z,17.29
2023-05-09T08:55:46.909Z,17.33
2023-05-09T08:57:40.430Z,17.38
2023-05-09T08:59:37.367Z,17.42
2023-05-09T09:01:30.898Z,17.53
2023-05-09T09:03:26.370Z,17.61
2023-05-09T09:05:39.988Z,17.62
2023-05-09T09:07:36.461Z,17.66
2023-05-09T09:09:29.698Z,17.74
2023-05-09T09:11:23.372Z,17.74
2023-05-09T09:13:18.626Z,17.70
2023-05-09T09:15:17.933Z,17.71
2023-05-09T09:17:15.432Z,17.78
2023-05-09T09:19:13.207Z,17.82
2023-05-09T09:21:09.837Z,17.80
2023-05-09T09:23:05.669Z,17.83
2023-05-09T09:25:00.326Z,17.83
2023-05-09T09:26:53.376Z,17.78
2023-05-09T09:29:07.621Z,17.75
2023-05-09T09:31:02.487Z,17.79
2023-05-09T09:33:00.713Z,17.90
2023-05-09T09:35:07.980Z,17.93
2023-05-09T09:37:02.686Z,18.04
2023-05-09T09:39:00.933Z,18.15
2023-05-09T09:40:58.896Z,18.28
2023-05-09T09:42:52.466Z,18.35
2023-05-09T09:44:45.403Z,18.36
2023-05-09T09:46:48.387Z,18.35
2023-05-09T09:48:52.932Z,18.34
2023-05-09T09:50:47.976Z,18.41
2023-05-09T09:52:51.817Z,18.50
2023-05-09T09:54:44.975Z,18.48
2023-05-09T09:56:46.613Z,18.46
2023-05-09T09:58:39.472Z,18.48
2023-05-09T10:00:32.926Z,18.43
2023-05-09T10:02:26.173Z,18.41
2023-05-09T10:04:19.082Z,18.33
2023-05-09T10:06:14.422Z,18.32
2023-05-09T10:08:10.049Z,18.35
2023-05-09T10:10:06.213Z,18.42
2023-05-09T10:12:03.718Z,18.46
2023-05-09T10:13:56.666Z,18.44
2023-05-09T10:15:53.861Z,18.40
2023-05-09T10:17:52.360Z,18.42
2023-05-09T10:19:46.561Z,18.46
2023-05-09T10:21:40.863Z,18.51
2023-05-09T10:23:39.849Z,18.52
2023-05-09T10:25:44.530Z,18.46
2023-05-09T10:27:39.081Z,18.45
2023-05-09T10:29:37.827Z,18.41
2023-05-09T10:31:34.930Z,18.42
2023-05-09T10:33:38.591Z,18.47
2023-05-09T10:35:36.690Z,18.55
2023-05-09T10:37:30.984Z,18.62
2023-05-09T10:39:24.592Z,18.71
2023-05-09T10:41:19.024Z,18.84
2023-05-09T10:43:15.389Z,18.84
2023-05-09T10:45:10.158Z,18.82
2023-05-09T10:47:03.491Z,18.84
2023-05-09T10:48:57.104Z,18.90
2023-05-09T10:50:50.359Z,18.96
2023-05-09T10:53:05.942Z,18.96
2023-05-09T10:55:04.327Z,18.84
2023-05-09T10:56:58.083Z,18.80
2023-05-09T10:58:50.921Z,18.79
2023-05-09T11:00:44.499Z,18.76
2023-05-09T11:02:39.294Z,18.73
2023-05-09T11:04:34.194Z,18.73
2023-05-09T11:06:49.784Z,18.75
2023-05-09T11:08:42.959Z,18.86
2023-05-09T11:10:42.885Z,18.91
2023-05-09T11:13:01.586Z,19.03
2023-05-09T11:15:05.880Z,19.05
2023-05-09T11:17:00.369Z,19.10
2023-05-09T11:18:53.451Z,19.13
2023-05-09T11:20:49.590Z,19.14
2023-05-09T11:22:45.054Z,19.10
2023-05-09T11:24:38.416Z,19.09
2023-05-09T11:26:31.581Z,19.13
2023-05-09T11:28:33.779Z,19.12
2023-05-09T11:30:39.889Z,19.07
2023-05-09T11:32:40.463Z,19.05
2023-05-09T11:34:34.914Z,19.00
2023-05-09T11:36:35.190Z,18.94
2023-05-09T11:38:42.044Z,18.93
2023-05-09T11:40:35.476Z,18.94
2023-05-09T11:42:29.444Z,18.87
2023-05-09T11:44:22.233Z,18.79
2023-05-09T11:46:15.172Z,18.69
2023-05-09T11:48:11.222Z,18.64
2023-05-09T11:50:08.182Z,18.54
2023-05-09T11:52:01.229Z,18.45
2023-05-09T11:53:54.271Z,18.39
2023-05-09T11:55:47.990Z,18.41
2023-05-09T11:57:50.109Z,18.41
2023-05-09T11:59:45.572Z,18.39
2023-05-09T12:01:38.977Z,18.39
2023-05-09T12:03:32.008Z,18.38
2023-05-09T12:05:26.445Z,18.40
2023-05-09T12:07:20.319Z,18.41
2023-05-09T12:09:16.291Z,18.45
2023-05-09T12:11:10.161Z,18.45
2023-05-09T12:13:03.294Z,18.42
2023-05-09T12:14:57.707Z,18.38
2023-05-09T12:16:50.716Z,18.34
2023-05-09T12:18:51.774Z,18.35
2023-05-09T12:20:48.519Z,18.36
2023-05-09T12:22:43.823Z,18.32
2023-05-09T12:24:37.809Z,18.30
2023-05-09T12:26:31.362Z,18.33
2023-05-09T12:28:25.644Z,18.34
2023-05-09T12:30:19.203Z,18.32
2023-05-09T12:32:14.519Z,18.29
2023-05-09T12:34:10.234Z,18.27
2023-05-09T12:36:03.609Z,18.22
2023-05-09T12:37:59.095Z,18.21
2023-05-09T12:40:06.769Z,18.26
2023-05-09T12:42:02.021Z,18.28
2023-05-09T12:43:56.604Z,18.26
2023-05-09T12:45:52.896Z,18.22
2023-05-09T12:47:45.916Z,18.19
2023-05-09T12:49:38.898Z,18.18
2023-05-09T12:51:31.843Z,18.12
2023-05-09T12:53:32.181Z,18.07
2023-05-09T12:55:25.008Z,18.04
2023-05-09T12:57:29.508Z,18.04
2023-05-09T12:59:26.869Z,17.97
2023-05-09T13:01:21.631Z,17.93
2023-05-09T13:03:27.468Z,17.89
2023-05-09T13:05:22.812Z,17.88
2023-05-09T13:07:16.181Z,17.89
2023-05-09T13:09:11.104Z,17.88
2023-05-09T13:11:15.566Z,17.90
2023-05-09T13:13:18.816Z,17.95
2023-05-09T13:15:13.075Z,17.99
2023-05-09T13:17:06.959Z,17.98
2023-05-09T13:19:01.650Z,17.94
2023-05-09T13:20:58.367Z,17.96
2023-05-09T13:22:51.620Z,17.98
2023-05-09T13:24:44.452Z,18.01
2023-05-09T13:26:37.414Z,18.04
2023-05-09T13:28:30.255Z,18.03
2023-05-09T13:30:23.230Z,18.02
2023-05-09T13:32:16.357Z,18.03
2023-05-09T13:34:09.142Z,17.99
2023-05-09T13:36:02.030Z,17.94
2023-05-09T13:37:54.888Z,17.93
2023-05-09T13:39:48.680Z,17.94
2023-05-09T13:41:41.510Z,17.96
2023-05-09T13:43:35.268Z,17.93
2023-05-09T13:45:28.083Z,17.91
2023-05-09T13:47:21.284Z,17.90
2023-05-09T13:49:14.101Z,17.93
2023-05-09T13:51:07.910Z,17.93
2023-05-09T13:53:00.944Z,17.89
2023-05-09T13:54:54.301Z,17.91
2023-05-09T13:57:05.200Z,17.95
2023-05-09T13:58:58.081Z,17.97
2023-05-09T14:00:55.173Z,18.00
2023-05-09T14:03:09.440Z,18.02
2023-05-09T14:05:04.521Z,17.97
2023-05-09T14:06:58.367Z,17.93
2023-05-09T14:08:51.312Z,17.93
2023-05-09T14:10:45.957Z,17.92
2023-05-09T14:12:45.179Z,17.94
2023-05-09T14:14:38.659Z,17.97
2023-05-09T14:16:31.564Z,17.98
2023-05-09T14:18:24.547Z,17.95
2023-05-09T14:20:18.265Z,17.93
2023-05-09T14:22:11.578Z,17.92
2023-05-09T14:24:04.933Z,17.90
2023-05-09T14:25:59.236Z,17.90
2023-05-09T14:27:53.721Z,17.92
2023-05-09T14:29:46.682Z,17.95
2023-05-09T14:31:40.130Z,17.95
2023-05-09T14:33:33.165Z,17.90
2023-05-09T14:35:26.244Z,17.86
2023-05-09T14:37:19.277Z,17.86
2023-05-09T14:39:12.616Z,17.87
2023-05-09T14:41:07.000Z,17.86
2023-05-09T14:43:02.562Z,17.83
2023-05-09T14:44:55.866Z,17.80
2023-05-09T14:46:49.006Z,17.79
2023-05-09T14:48:41.976Z,17.83
2023-05-09T14:50:34.914Z,17.87
2023-05-09T14:52:28.898Z,17.87
2023-05-09T14:54:22.044Z,17.86
2023-05-09T14:56:14.898Z,17.83
2023-05-09T14:58:09.067Z,17.81
2023-05-09T15:02:00.591Z,17.84
2023-05-09T15:03:53.592Z,17.87
2023-05-09T15:05:50.001Z,17.90
2023-05-09T15:07:42.930Z,17.94
2023-05-09T15:09:35.785Z,17.96
2023-05-09T15:11:33.347Z,17.92
2023-05-09T15:13:32.767Z,17.89
2023-05-09T15:15:26.484Z,17.86
2023-05-09T15:17:20.249Z,17.81
2023-05-09T15:19:13.100Z,17.76
2023-05-09T15:21:05.945Z,17.75
2023-05-09T15:22:58.825Z,17.76
2023-05-09T15:24:51.686Z,17.78
2023-05-09T15:26:44.795Z,17.79
2023-05-09T15:28:39.567Z,17.78
2023-05-09T15:30:32.631Z,17.77
2023-05-09T15:32:26.124Z,17.77
2023-05-09T15:34:19.657Z,17.76
2023-05-09T15:36:12.828Z,17.74
2023-05-09T15:38:05.754Z,17.74
2023-05-09T15:39:59.011Z,17.72
2023-05-09T15:41:51.970Z,17.71
2023-05-09T15:43:44.815Z,17.68
2023-05-09T15:45:38.984Z,17.62
2023-05-09T15:47:31.836Z,17.55
2023-05-09T15:49:25.083Z,17.51
2023-05-09T15:51:17.861Z,17.51
2023-05-09T15:53:11.230Z,17.52
2023-05-09T15:55:04.780Z,17.51
2023-05-09T15:56:58.205Z,17.46
2023-05-09T15:58:51.156Z,17.40
2023-05-09T16:00:45.644Z,17.34
2023-05-09T16:02:38.565Z,17.32
2023-05-09T16:04:32.666Z,17.30
2023-05-09T16:06:26.836Z,17.28
2023-05-09T16:08:19.689Z,17.26
2023-05-09T16:10:14.176Z,17.27
2023-05-09T16:12:08.042Z,17.29
2023-05-09T16:14:01.249Z,17.29
2023-05-09T16:15:54.270Z,17.28
2023-05-09T16:17:47.194Z,17.26
2023-05-09T16:19:40.651Z,17.24
2023-05-09T16:21:33.668Z,17.23
2023-05-09T16:23:26.703Z,17.22
2023-05-09T16:25:19.727Z,17.20
2023-05-09T16:27:14.516Z,17.17
2023-05-09T16:29:07.440Z,17.12
2023-05-09T16:31:01.002Z,17.08
2023-05-09T16:32:54.062Z,17.04
2023-05-09T16:34:47.511Z,17.02
2023-05-09T16:36:40.474Z,17.01
2023-05-09T16:38:33.410Z,17.01
2023-05-09T16:40:26.264Z,16.99
2023-05-09T16:42:19.108Z,16.98
2023-05-09T16:44:13.051Z,16.97
2023-05-09T16:46:06.739Z,16.96
2023-05-09T16:48:01.487Z,16.95
2023-05-09T16:49:55.393Z,16.94
2023-05-09T16:51:48.245Z,16.93
2023-05-09T16:53:41.608Z,16.89
2023-05-09T16:55:34.448Z,16.87
2023-05-09T16:57:27.298Z,16.84
2023-05-09T16:59:20.956Z,16.80
2023-05-09T17:01:13.833Z,16.77
2023-05-09T17:03:07.292Z,16.75
2023-05-09T17:05:00.191Z,16.73
2023-05-09T17:06:53.365Z,16.71
2023-05-09T17:08:46.518Z,16.69
2023-05-09T17:10:41.441Z,16.66
2023-05-09T17:12:35.383Z,16.64
2023-05-09T17:14:28.327Z,16.61
2023-05-09T17:16:21.201Z,16.57
2023-05-09T17:18:19.331Z,16.52
2023-05-09T17:20:18.678Z,16.49
2023-05-09T17:22:11.717Z,16.44
2023-05-09T17:24:04.649Z,16.41
2023-05-09T17:25:57.496Z,16.37
2023-05-09T17:27:50.545Z,16.33
2023-05-09T17:29:43.393Z,16.30
2023-05-09T17:31:36.258Z,16.26
2023-05-09T17:33:29.290Z,16.22
2023-05-09T17:35:23.053Z,16.19
2023-05-09T17:37:17.128Z,16.14
2023-05-09T17:39:09.981Z,16.10
2023-05-09T17:41:02.914Z,16.05
2023-05-09T17:42:55.868Z,16.00
2023-05-09T17:44:50.454Z,15.95
2023-05-09T17:46:44.218Z,15.90
2023-05-09T17:48:37.326Z,15.84
2023-05-09T17:50:33.688Z,15.80
2023-05-09T17:52:27.674Z,15.75
2023-05-09T17:54:21.238Z,15.71
2023-05-09T17:56:14.096Z,15.66
2023-05-09T17:58:08.259Z,15.61
2023-05-09T18:00:01.105Z,15.56
2023-05-09T18:01:55.057Z,15.50
2023-05-09T18:03:48.431Z,15.46
2023-05-09T18:05:41.795Z,15.40
2023-05-09T18:07:34.747Z,15.35
2023-05-09T18:09:28.306Z,15.30
2023-05-09T18:11:22.558Z,15.24
2023-05-09T18:13:15.450Z,15.17
2023-05-09T18:15:08.887Z,15.11
2023-05-09T18:17:02.153Z,15.06
2023-05-09T18:18:54.943Z,15.01
2023-05-09T18:20:48.052Z,14.95
2023-05-09T18:22:42.169Z,14.87
2023-05-09T18:24:36.902Z,14.81
2023-05-09T18:26:29.751Z,14.76
2023-05-09T18:28:24.969Z,14.71
2023-05-09T18:30:18.871Z,14.68
2023-05-09T18:32:13.902Z,14.64
2023-05-09T18:34:07.736Z,14.60
2023-05-09T18:36:01.262Z,14.55
2023-05-09T18:37:54.517Z,14.50
2023-05-09T18:39:47.765Z,14.45
2023-05-09T18:41:41.638Z,14.41
2023-05-09T18:43:36.057Z,14.37
2023-05-09T18:45:29.320Z,14.32
2023-05-09T18:47:23.984Z,14.28
2023-05-09T18:49:17.631Z,14.22
2023-05-09T18:51:11.085Z,14.17
2023-05-09T18:53:03.928Z,14.13
2023-05-09T18:54:56.975Z,14.08
2023-05-09T18:56:50.039Z,14.03
2023-05-09T18:58:42.869Z,13.96
2023-05-09T19:00:36.265Z,13.90
2023-05-09T19:02:30.303Z,13.85
2023-05-09T19:04:23.609Z,13.78
2023-05-09T19:06:16.612Z,13.71
2023-05-09T19:08:10.329Z,13.66
2023-05-09T19:10:04.888Z,13.60
2023-05-09T19:11:59.658Z,13.53
2023-05-09T19:13:53.297Z,13.45
2023-05-09T19:15:50.090Z,13.40
2023-05-09T19:17:43.953Z,13.35
2023-05-09T19:19:40.882Z,13.29
2023-05-09T19:21:35.942Z,13.22
2023-05-09T19:23:30.277Z,13.17
2023-05-09T19:25:24.008Z,13.14
2023-05-09T19:27:19.551Z,13.12
2023-05-09T19:29:12.471Z,13.10
2023-05-09T19:31:05.359Z,13.06
2023-05-09T19:32:58.388Z,13.02
2023-05-09T19:34:51.233Z,12.96
2023-05-09T19:36:44.069Z,12.92
2023-05-09T19:38:37.004Z,12.88
2023-05-09T19:40:29.993Z,12.84
2023-05-09T19:42:22.898Z,12.80
2023-05-09T19:44:15.751Z,12.75
2023-05-09T19:46:08.791Z,12.70
2023-05-09T19:48:04.878Z,12.64
2023-05-09T19:49:59.505Z,12.60
2023-05-09T19:51:52.664Z,12.57
2023-05-09T19:53:47.363Z,12.53
2023-05-09T19:55:41.422Z,12.50
2023-05-09T19:57:34.289Z,12.45
2023-05-09T19:59:27.332Z,12.41
2023-05-09T20:01:21.012Z,12.36
2023-05-09T20:03:14.329Z,12.33
2023-05-09T20:05:07.958Z,12.29
2023-05-09T20:07:02.326Z,12.24
2023-05-09T20:08:55.576Z,12.20
2023-05-09T20:10:48.501Z,12.14
2023-05-09T20:12:41.994Z,12.10
2023-05-09T20:14:35.724Z,12.07
2023-05-09T20:16:28.706Z,12.04
2023-05-09T20:18:22.036Z,12.00
2023-05-09T20:20:15.225Z,11.97
2023-05-09T20:22:09.080Z,11.92
2023-05-09T20:24:02.208Z,11.89
2023-05-09T20:25:56.017Z,11.86
2023-05-09T20:27:49.028Z,11.84
2023-05-09T20:29:41.980Z,11.81
2023-05-09T20:31:35.043Z,11.80
2023-05-09T20:33:27.989Z,11.77
2023-05-09T20:35:21.030Z,11.75
2023-05-09T20:37:13.926Z,11.71
2023-05-09T20:39:07.394Z,11.69
2023-05-09T20:41:01.604Z,11.68
2023-05-09T20:42:54.555Z,11.66
2023-05-09T20:44:48.941Z,11.64
2023-05-09T20:46:42.139Z,11.60
2023-05-09T20:48:36.109Z,11.57
2023-05-09T20:50:30.572Z,11.54
2023-05-09T20:52:23.804Z,11.51
2023-05-09T20:54:17.982Z,11.47
2023-05-09T20:56:11.129Z,11.44
2023-05-09T20:58:04.079Z,11.41
2023-05-09T20:59:57.261Z,11.39
2023-05-09T21:01:52.707Z,11.36
2023-05-09T21:03:46.410Z,11.34
2023-05-09T21:05:58.822Z,11.32
2023-05-09T21:08:33.392Z,11.26
2023-05-09T21:10:32.880Z,11.21
2023-05-09T21:12:29.481Z,11.18
2023-05-09T21:14:23.452Z,11.15
2023-05-09T21:16:16.504Z,11.12
2023-05-09T21:18:09.580Z,11.09
2023-05-09T21:20:02.698Z,11.06
2023-05-09T21:21:55.764Z,11.04
2023-05-09T21:23:48.700Z,11.02
2023-05-09T21:25:42.667Z,11.01
2023-05-09T21:27:35.921Z,10.99
2023-05-09T21:29:28.866Z,10.99
2023-05-09T21:31:21.883Z,10.98
2023-05-09T21:33:15.075Z,10.97
2023-05-09T21:35:11.072Z,10.95
2023-05-09T21:37:03.939Z,10.94
2023-05-09T21:38:56.781Z,10.93
2023-05-09T21:40:51.352Z,10.91
2023-05-09T21:42:44.330Z,10.90
2023-05-09T21:44:37.675Z,10.88
2023-05-09T21:46:33.286Z,10.86
2023-05-09T21:48:26.341Z,10.86
2023-05-09T21:50:19.381Z,10.84
2023-05-09T21:52:12.347Z,10.81
2023-05-09T21:54:05.390Z,10.79
2023-05-09T21:55:58.335Z,10.77
2023-05-09T21:57:51.280Z,10.74
2023-05-09T21:59:44.437Z,10.73
2023-05-09T22:01:37.519Z,10.71
2023-05-09T22:03:30.655Z,10.70
2023-05-09T22:05:23.994Z,10.67
2023-05-09T22:07:16.942Z,10.67
2023-05-09T22:09:10.813Z,10.65
2023-05-09T22:11:03.764Z,10.63
2023-05-09T22:12:57.401Z,10.60
2023-05-09T22:14:56.310Z,10.58
2023-05-09T22:16:49.814Z,10.56
2023-05-09T22:18:43.352Z,10.54
2023-05-09T22:20:36.386Z,10.52
2023-05-09T22:22:29.978Z,10.49
2023-05-09T22:24:23.063Z,10.47
2023-05-09T22:26:16.050Z,10.44
2023-05-09T22:28:09.342Z,10.41
2023-05-09T22:30:03.684Z,10.38
2023-05-09T22:31:56.583Z,10.35
2023-05-09T22:33:49.692Z,10.33
2023-05-09T22:35:42.641Z,10.29
2023-05-09T22:37:36.502Z,10.26
2023-05-09T22:39:30.067Z,10.24
2023-05-09T22:41:23.014Z,10.21
2023-05-09T22:43:16.185Z,10.18
2023-05-09T22:45:09.623Z,10.13
2023-05-09T22:47:02.461Z,10.08
2023-05-09T22:48:55.234Z,10.04
2023-05-09T22:50:48.156Z,9.99
2023-05-09T22:52:41.108Z,9.95
2023-05-09T22:54:34.255Z,9.91
2023-05-09T22:56:27.530Z,9.87
2023-05-09T22:58:20.678Z,9.83
2023-05-09T23:00:14.993Z,9.80
2023-05-09T23:02:08.141Z,9.76
2023-05-09T23:04:01.251Z,9.73
2023-05-09T23:05:54.507Z,9.70
2023-05-09T23:07:47.761Z,9.67
2023-05-09T23:09:41.028Z,9.64
2023-05-09T23:11:34.092Z,9.61
2023-05-09T23:13:26.951Z,9.59
2023-05-09T23:15:19.978Z,9.55
2023-05-09T23:17:12.914Z,9.52
2023-05-09T23:19:06.501Z,9.50
2023-05-09T23:20:59.263Z,9.49
2023-05-09T23:22:52.176Z,9.48
2023-05-09T23:24:45.340Z,9.45
2023-05-09T23:26:38.291Z,9.44
2023-05-09T23:28:31.404Z,9.43
2023-05-09T23:30:24.286Z,9.42
2023-05-09T23:32:17.117Z,9.41
2023-05-09T23:34:10.144Z,9.39
2023-05-09T23:36:03.941Z,9.38
2023-05-09T23:37:56.982Z,9.37
2023-05-09T23:39:50.342Z,9.36
2023-05-09T23:41:43.182Z,9.36
2023-05-09T23:43:37.901Z,9.34
2023-05-09T23:45:31.026Z,9.33
2023-05-09T23:47:23.770Z,9.32
2023-05-09T23:49:16.717Z,9.29
2023-05-09T23:51:09.514Z,9.27
2023-05-09T23:53:04.973Z,9.25
2023-05-09T23:54:57.922Z,9.22
2023-05-09T23:56:50.861Z,9.20
2023-05-09T23:58:43.734Z,9.18
